Weather at Frosta Airfield

Public forecast

Using degrees Celsius for public forecast. Weather courtesy of forecast.io.

Closest aviation weather report (METAR) to Frosta Airfield

Closest report is Trondheim Airport, Værnes, 8.9 nm (16.4 km) SE.

2024/05/22 20:20 (retrieved 12 minutes ago)

ENVA 222020Z 17009KT CAVOK 22/02 Q1016 RMK WIND 670FT 18016KT

Closest aviation forecast (TAF) to Frosta Airfield

Closest forecast is Trondheim Airport, Værnes, 8.9 nm (16.4 km) SE.

2024/05/22 18:36 (retrieved 2 hours ago)

TAF ENVA 221700Z 2218/2318 16009KT CAVOK TEMPO 2218/2314 17015G25KT